Weather at Camarillo International Airport

Public forecast

Using degrees Fahrenheit for public forecast. Weather courtesy of forecast.io.

Current aviation weather report (METAR) for Camarillo International Airport

Retrieved 2022/06/27 22:55 UTC (38 minutes ago):

KCMA 272255Z 27009KT 10SM CLR 26/13 A2997 RMK AO2 SLP156 T02560133

Aviation forecast (TAF) for Camarillo International Airport

Forecast is more than 6 hours old.

Retrieved 2022/06/27 12:29 UTC (11 hours ago):

TAF KCMA 271129Z 2712/2812 VRB03KT P6SM OVC004 FM271630 VRB03KT P6SM SKC FM271900 25008KT P6SM SKC FM280300 VRB03KT P6SM SKC FM280900 VRB03KT 6SM BR BKN006